Etusivu
METAR-TAF:

METAR-TAF

Lentoasemat :

Sanderson Field Airport

Shelton, Washington, Yhdysvallat

Leveyspiiri: 47-14-17N, Pituuspiiri: 123-08-27W, korkeus merenpinnasta: 82 m

Tämänhetkinen sää

Tämä raportti tehtiin 50 minuuttia sitten, kello 00.53 UTC
tyyntä
Lämpötila 3°C
Kosteus 100%
Ilmanpaine 1026 hPa
Näkyvyys: 1.2 km
utua

METAR: KSHN 230053Z AUTO 00000KT 3/4SM BR VV002 03/03 A3029 RMK AO2 SLP263 T00280028

Aika: 17:43 (01:43 UTC)


TAF: puuttuu

Säähavainnot ja -ennusteet yli 4000 lentoasemalta (METAR- ja TAF-raportit).

Käytössä olevat sääasemat on merkitty karttaan keltaisilla ja punaisilla pisteillä.

Aseta hiiri pisteen päälle nähdäksesi sääaseman nimen.

Klikkaa sitten nähdäksesi säähavainnot ja -ennusteet.

Kartan vaihtaminen: klikkaa mustalla rastilla varustettuja vihreitä pisteitä, niin voit zoomata sisään; viivalla varustettua vihreää pistettä, niin voit zoomata ulos tai vihreitä nuolia, niin pääset viereisille kartoille.


METAR-TAF: